sensor_id;sensor_type;location;lat;lon;timestamp;P1;durP1;ratioP1;P2;durP2;ratioP2
42346;SDS011;75728;51.856;6.314;2024-03-17T00:02:17;1.00;;;0.50;;
42346;SDS011;75728;51.856;6.314;2024-03-17T00:04:44;1.40;;;0.60;;
42346;SDS011;75728;51.856;6.314;2024-03-17T00:07:10;2.50;;;0.80;;
42346;SDS011;75728;51.856;6.314;2024-03-17T00:09:36;1.95;;;0.73;;
42346;SDS011;75728;51.856;6.314;2024-03-17T00:12:02;1.42;;;0.45;;
42346;SDS011;75728;51.856;6.314;2024-03-17T00:14:28;1.77;;;0.50;;
42346;SDS011;75728;51.856;6.314;2024-03-17T00:16:54;1.67;;;0.80;;
42346;SDS011;75728;51.856;6.314;2024-03-17T00:19:20;1.70;;;0.60;;
42346;SDS011;75728;51.856;6.314;2024-03-17T00:21:47;1.95;;;0.50;;
42346;SDS011;75728;51.856;6.314;2024-03-17T00:24:15;1.33;;;0.70;;
42346;SDS011;75728;51.856;6.314;2024-03-17T00:26:41;1.55;;;0.57;;
42346;SDS011;75728;51.856;6.314;2024-03-17T00:29:07;1.35;;;0.40;;
42346;SDS011;75728;51.856;6.314;2024-03-17T00:31:32;1.48;;;0.50;;
42346;SDS011;75728;51.856;6.314;2024-03-17T00:33:58;2.45;;;0.55;;
42346;SDS011;75728;51.856;6.314;2024-03-17T00:36:24;1.50;;;0.50;;
42346;SDS011;75728;51.856;6.314;2024-03-17T00:38:49;1.38;;;0.30;;
42346;SDS011;75728;51.856;6.314;2024-03-17T00:41:17;2.70;;;0.47;;
42346;SDS011;75728;51.856;6.314;2024-03-17T00:43:42;1.15;;;0.38;;
42346;SDS011;75728;51.856;6.314;2024-03-17T00:46:08;0.65;;;0.35;;
42346;SDS011;75728;51.856;6.314;2024-03-17T00:48:33;1.08;;;0.40;;
42346;SDS011;75728;51.856;6.314;2024-03-17T00:50:59;1.42;;;0.60;;
42346;SDS011;75728;51.856;6.314;2024-03-17T00:53:25;1.10;;;0.60;;
42346;SDS011;75728;51.856;6.314;2024-03-17T00:55:51;2.08;;;0.50;;
42346;SDS011;75728;51.856;6.314;2024-03-17T00:58:18;1.13;;;0.50;;
42346;SDS011;75728;51.856;6.314;2024-03-17T01:00:47;2.65;;;0.50;;
42346;SDS011;75728;51.856;6.314;2024-03-17T01:03:16;1.80;;;0.47;;
42346;SDS011;75728;51.856;6.314;2024-03-17T01:05:42;1.38;;;0.77;;
42346;SDS011;75728;51.856;6.314;2024-03-17T01:08:09;1.75;;;0.70;;
42346;SDS011;75728;51.856;6.314;2024-03-17T01:10:38;0.65;;;0.38;;
42346;SDS011;75728;51.856;6.314;2024-03-17T01:13:08;1.20;;;0.45;;
42346;SDS011;75728;51.856;6.314;2024-03-17T01:15:38;0.88;;;0.38;;
42346;SDS011;75728;51.856;6.314;2024-03-17T01:18:04;1.33;;;0.32;;
42346;SDS011;75728;51.856;6.314;2024-03-17T01:20:31;1.02;;;0.40;;
42346;SDS011;75728;51.856;6.314;2024-03-17T01:22:57;1.65;;;0.45;;
42346;SDS011;75728;51.856;6.314;2024-03-17T01:25:22;1.05;;;0.47;;
42346;SDS011;75728;51.856;6.314;2024-03-17T01:27:50;1.10;;;0.40;;
42346;SDS011;75728;51.856;6.314;2024-03-17T01:30:16;1.80;;;0.63;;
42346;SDS011;75728;51.856;6.314;2024-03-17T01:32:42;1.23;;;0.50;;
42346;SDS011;75728;51.856;6.314;2024-03-17T01:35:08;0.63;;;0.30;;
42346;SDS011;75728;51.856;6.314;2024-03-17T01:37:33;1.05;;;0.40;;
42346;SDS011;75728;51.856;6.314;2024-03-17T01:39:59;1.50;;;0.30;;
42346;SDS011;75728;51.856;6.314;2024-03-17T01:42:24;0.85;;;0.45;;
42346;SDS011;75728;51.856;6.314;2024-03-17T01:44:50;1.80;;;0.55;;
42346;SDS011;75728;51.856;6.314;2024-03-17T01:47:16;1.48;;;0.55;;
42346;SDS011;75728;51.856;6.314;2024-03-17T01:49:46;1.15;;;0.50;;
42346;SDS011;75728;51.856;6.314;2024-03-17T01:52:12;1.40;;;0.65;;
42346;SDS011;75728;51.856;6.314;2024-03-17T01:54:42;0.88;;;0.47;;
42346;SDS011;75728;51.856;6.314;2024-03-17T01:57:08;1.05;;;0.50;;
42346;SDS011;75728;51.856;6.314;2024-03-17T01:59:35;0.80;;;0.47;;
42346;SDS011;75728;51.856;6.314;2024-03-17T02:02:01;1.27;;;0.40;;
42346;SDS011;75728;51.856;6.314;2024-03-17T02:04:27;1.08;;;0.50;;
42346;SDS011;75728;51.856;6.314;2024-03-17T02:06:53;1.25;;;0.30;;
42346;SDS011;75728;51.856;6.314;2024-03-17T02:09:19;1.05;;;0.40;;
42346;SDS011;75728;51.856;6.314;2024-03-17T02:11:47;1.75;;;0.40;;
42346;SDS011;75728;51.856;6.314;2024-03-17T02:14:12;0.75;;;0.30;;
42346;SDS011;75728;51.856;6.314;2024-03-17T02:16:39;1.58;;;0.55;;
42346;SDS011;75728;51.856;6.314;2024-03-17T02:19:05;1.05;;;0.50;;
42346;SDS011;75728;51.856;6.314;2024-03-17T02:21:31;1.98;;;0.55;;
42346;SDS011;75728;51.856;6.314;2024-03-17T02:23:57;1.00;;;0.40;;
42346;SDS011;75728;51.856;6.314;2024-03-17T02:26:25;1.52;;;0.82;;
42346;SDS011;75728;51.856;6.314;2024-03-17T02:28:51;1.20;;;0.43;;
42346;SDS011;75728;51.856;6.314;2024-03-17T02:31:17;1.10;;;0.50;;
42346;SDS011;75728;51.856;6.314;2024-03-17T02:33:43;0.95;;;0.60;;
42346;SDS011;75728;51.856;6.314;2024-03-17T02:36:09;0.70;;;0.40;;
42346;SDS011;75728;51.856;6.314;2024-03-17T02:38:36;0.98;;;0.80;;
42346;SDS011;75728;51.856;6.314;2024-03-17T02:41:22;1.15;;;0.50;;
42346;SDS011;75728;51.856;6.314;2024-03-17T02:43:48;1.75;;;0.50;;
42346;SDS011;75728;51.856;6.314;2024-03-17T02:46:14;0.80;;;0.20;;
42346;SDS011;75728;51.856;6.314;2024-03-17T02:48:42;0.98;;;0.50;;
42346;SDS011;75728;51.856;6.314;2024-03-17T02:51:12;0.35;;;0.30;;
42346;SDS011;75728;51.856;6.314;2024-03-17T02:53:41;0.63;;;0.40;;
42346;SDS011;75728;51.856;6.314;2024-03-17T02:56:07;0.93;;;0.40;;
42346;SDS011;75728;51.856;6.314;2024-03-17T02:58:37;1.10;;;0.40;;
42346;SDS011;75728;51.856;6.314;2024-03-17T03:01:04;1.13;;;0.32;;
42346;SDS011;75728;51.856;6.314;2024-03-17T03:03:34;0.95;;;0.30;;
42346;SDS011;75728;51.856;6.314;2024-03-17T03:06:01;0.80;;;0.38;;
42346;SDS011;75728;51.856;6.314;2024-03-17T03:08:29;0.85;;;0.40;;
42346;SDS011;75728;51.856;6.314;2024-03-17T03:10:55;2.15;;;0.90;;
42346;SDS011;75728;51.856;6.314;2024-03-17T03:13:21;1.40;;;0.63;;
42346;SDS011;75728;51.856;6.314;2024-03-17T03:15:47;0.60;;;0.30;;
42346;SDS011;75728;51.856;6.314;2024-03-17T03:18:13;1.08;;;0.38;;
42346;SDS011;75728;51.856;6.314;2024-03-17T03:20:39;0.88;;;0.30;;
42346;SDS011;75728;51.856;6.314;2024-03-17T03:23:05;1.00;;;0.50;;
42346;SDS011;75728;51.856;6.314;2024-03-17T03:25:31;1.30;;;0.70;;
42346;SDS011;75728;51.856;6.314;2024-03-17T03:27:56;0.65;;;0.30;;
42346;SDS011;75728;51.856;6.314;2024-03-17T03:30:23;0.57;;;0.40;;
42346;SDS011;75728;51.856;6.314;2024-03-17T03:32:49;1.08;;;0.40;;
42346;SDS011;75728;51.856;6.314;2024-03-17T03:35:15;1.45;;;0.52;;
42346;SDS011;75728;51.856;6.314;2024-03-17T03:37:41;0.93;;;0.40;;
42346;SDS011;75728;51.856;6.314;2024-03-17T03:40:07;0.80;;;0.43;;
42346;SDS011;75728;51.856;6.314;2024-03-17T03:42:41;0.80;;;0.30;;
42346;SDS011;75728;51.856;6.314;2024-03-17T03:45:08;1.88;;;0.60;;
42346;SDS011;75728;51.856;6.314;2024-03-17T03:47:34;1.10;;;0.40;;
42346;SDS011;75728;51.856;6.314;2024-03-17T03:50:00;0.32;;;0.20;;
42346;SDS011;75728;51.856;6.314;2024-03-17T03:52:25;0.35;;;0.20;;
42346;SDS011;75728;51.856;6.314;2024-03-17T03:54:51;0.93;;;0.35;;
42346;SDS011;75728;51.856;6.314;2024-03-17T03:57:17;0.63;;;0.30;;
42346;SDS011;75728;51.856;6.314;2024-03-17T03:59:43;0.50;;;0.30;;
42346;SDS011;75728;51.856;6.314;2024-03-17T04:02:09;1.05;;;0.40;;
42346;SDS011;75728;51.856;6.314;2024-03-17T04:04:34;0.75;;;0.30;;
42346;SDS011;75728;51.856;6.314;2024-03-17T04:07:00;1.30;;;0.32;;
42346;SDS011;75728;51.856;6.314;2024-03-17T04:09:26;0.55;;;0.30;;
42346;SDS011;75728;51.856;6.314;2024-03-17T04:11:51;0.95;;;0.38;;
42346;SDS011;75728;51.856;6.314;2024-03-17T04:14:17;0.88;;;0.30;;
42346;SDS011;75728;51.856;6.314;2024-03-17T04:16:43;0.82;;;0.40;;
42346;SDS011;75728;51.856;6.314;2024-03-17T04:19:09;0.68;;;0.40;;
42346;SDS011;75728;51.856;6.314;2024-03-17T04:21:34;1.75;;;0.40;;
42346;SDS011;75728;51.856;6.314;2024-03-17T04:24:00;0.93;;;0.30;;
42346;SDS011;75728;51.856;6.314;2024-03-17T04:26:26;1.10;;;0.50;;
42346;SDS011;75728;51.856;6.314;2024-03-17T04:28:51;0.63;;;0.30;;
42346;SDS011;75728;51.856;6.314;2024-03-17T04:31:17;0.55;;;0.30;;
42346;SDS011;75728;51.856;6.314;2024-03-17T04:33:43;0.73;;;0.32;;
42346;SDS011;75728;51.856;6.314;2024-03-17T04:36:08;1.85;;;0.45;;
42346;SDS011;75728;51.856;6.314;2024-03-17T04:38:34;0.50;;;0.30;;
42346;SDS011;75728;51.856;6.314;2024-03-17T04:40:59;1.05;;;0.43;;
42346;SDS011;75728;51.856;6.314;2024-03-17T04:43:33;0.70;;;0.38;;
42346;SDS011;75728;51.856;6.314;2024-03-17T04:46:02;1.10;;;0.30;;
42346;SDS011;75728;51.856;6.314;2024-03-17T04:48:30;0.82;;;0.40;;
42346;SDS011;75728;51.856;6.314;2024-03-17T04:50:57;1.40;;;0.50;;
42346;SDS011;75728;51.856;6.314;2024-03-17T04:53:23;1.00;;;0.40;;
42346;SDS011;75728;51.856;6.314;2024-03-17T04:55:57;1.02;;;0.30;;
42346;SDS011;75728;51.856;6.314;2024-03-17T04:58:31;0.63;;;0.40;;
42346;SDS011;75728;51.856;6.314;2024-03-17T05:00:57;1.13;;;0.47;;
42346;SDS011;75728;51.856;6.314;2024-03-17T05:03:22;1.33;;;0.40;;
42346;SDS011;75728;51.856;6.314;2024-03-17T05:05:48;1.13;;;0.22;;
42346;SDS011;75728;51.856;6.314;2024-03-17T05:08:25;1.40;;;0.50;;
42346;SDS011;75728;51.856;6.314;2024-03-17T05:10:55;0.45;;;0.30;;
42346;SDS011;75728;51.856;6.314;2024-03-17T05:13:22;1.30;;;0.50;;
42346;SDS011;75728;51.856;6.314;2024-03-17T05:15:47;1.05;;;0.45;;
42346;SDS011;75728;51.856;6.314;2024-03-17T05:18:13;0.43;;;0.30;;
42346;SDS011;75728;51.856;6.314;2024-03-17T05:20:38;0.50;;;0.38;;
42346;SDS011;75728;51.856;6.314;2024-03-17T05:23:04;0.80;;;0.45;;
42346;SDS011;75728;51.856;6.314;2024-03-17T05:25:29;0.68;;;0.40;;
42346;SDS011;75728;51.856;6.314;2024-03-17T05:27:57;0.88;;;0.40;;
42346;SDS011;75728;51.856;6.314;2024-03-17T05:30:23;0.32;;;0.20;;
42346;SDS011;75728;51.856;6.314;2024-03-17T05:32:50;0.68;;;0.30;;
42346;SDS011;75728;51.856;6.314;2024-03-17T05:35:16;0.93;;;0.30;;
42346;SDS011;75728;51.856;6.314;2024-03-17T05:37:41;0.50;;;0.25;;
42346;SDS011;75728;51.856;6.314;2024-03-17T05:40:09;0.63;;;0.28;;
42346;SDS011;75728;51.856;6.314;2024-03-17T05:42:37;1.10;;;0.55;;
42346;SDS011;75728;51.856;6.314;2024-03-17T05:45:03;0.35;;;0.28;;
42346;SDS011;75728;51.856;6.314;2024-03-17T05:47:28;0.80;;;0.32;;
42346;SDS011;75728;51.856;6.314;2024-03-17T05:49:54;2.15;;;0.60;;
42346;SDS011;75728;51.856;6.314;2024-03-17T05:52:20;1.60;;;0.40;;
42346;SDS011;75728;51.856;6.314;2024-03-17T05:54:46;0.60;;;0.30;;
42346;SDS011;75728;51.856;6.314;2024-03-17T05:57:12;0.70;;;0.20;;
42346;SDS011;75728;51.856;6.314;2024-03-17T05:59:40;0.85;;;0.43;;
42346;SDS011;75728;51.856;6.314;2024-03-17T06:02:06;0.57;;;0.30;;
42346;SDS011;75728;51.856;6.314;2024-03-17T06:04:31;0.93;;;0.40;;
42346;SDS011;75728;51.856;6.314;2024-03-17T06:06:57;1.00;;;0.40;;
42346;SDS011;75728;51.856;6.314;2024-03-17T06:09:22;0.60;;;0.30;;
42346;SDS011;75728;51.856;6.314;2024-03-17T06:11:48;0.73;;;0.40;;
42346;SDS011;75728;51.856;6.314;2024-03-17T06:14:15;1.38;;;0.40;;
42346;SDS011;75728;51.856;6.314;2024-03-17T06:16:41;0.93;;;0.20;;
42346;SDS011;75728;51.856;6.314;2024-03-17T06:19:06;0.88;;;0.45;;
42346;SDS011;75728;51.856;6.314;2024-03-17T06:21:32;0.85;;;0.32;;
42346;SDS011;75728;51.856;6.314;2024-03-17T06:23:57;0.70;;;0.30;;
42346;SDS011;75728;51.856;6.314;2024-03-17T06:26:23;0.73;;;0.30;;
42346;SDS011;75728;51.856;6.314;2024-03-17T06:28:49;0.82;;;0.43;;
42346;SDS011;75728;51.856;6.314;2024-03-17T06:31:14;0.50;;;0.28;;
42346;SDS011;75728;51.856;6.314;2024-03-17T06:33:40;0.93;;;0.28;;
42346;SDS011;75728;51.856;6.314;2024-03-17T06:36:06;1.17;;;0.60;;
42346;SDS011;75728;51.856;6.314;2024-03-17T06:38:32;1.23;;;0.50;;
42346;SDS011;75728;51.856;6.314;2024-03-17T06:40:58;0.68;;;0.43;;
42346;SDS011;75728;51.856;6.314;2024-03-17T06:43:24;1.30;;;0.52;;
42346;SDS011;75728;51.856;6.314;2024-03-17T06:45:53;0.60;;;0.32;;
42346;SDS011;75728;51.856;6.314;2024-03-17T06:48:20;1.05;;;0.50;;
42346;SDS011;75728;51.856;6.314;2024-03-17T06:50:46;1.25;;;0.60;;
42346;SDS011;75728;51.856;6.314;2024-03-17T06:53:11;0.73;;;0.45;;
42346;SDS011;75728;51.856;6.314;2024-03-17T06:55:37;1.67;;;0.40;;
42346;SDS011;75728;51.856;6.314;2024-03-17T06:58:03;1.10;;;0.50;;
42346;SDS011;75728;51.856;6.314;2024-03-17T07:00:29;0.52;;;0.25;;
42346;SDS011;75728;51.856;6.314;2024-03-17T07:02:55;0.80;;;0.40;;
42346;SDS011;75728;51.856;6.314;2024-03-17T07:05:20;0.60;;;0.20;;
42346;SDS011;75728;51.856;6.314;2024-03-17T07:07:46;0.47;;;0.20;;
42346;SDS011;75728;51.856;6.314;2024-03-17T07:10:12;1.05;;;0.45;;
42346;SDS011;75728;51.856;6.314;2024-03-17T07:12:38;0.50;;;0.40;;
42346;SDS011;75728;51.856;6.314;2024-03-17T07:15:04;0.68;;;0.40;;
42346;SDS011;75728;51.856;6.314;2024-03-17T07:17:30;0.40;;;0.25;;
42346;SDS011;75728;51.856;6.314;2024-03-17T07:19:56;0.52;;;0.20;;
42346;SDS011;75728;51.856;6.314;2024-03-17T07:22:22;0.35;;;0.20;;
42346;SDS011;75728;51.856;6.314;2024-03-17T07:24:47;0.85;;;0.50;;
42346;SDS011;75728;51.856;6.314;2024-03-17T07:27:17;0.98;;;0.30;;
42346;SDS011;75728;51.856;6.314;2024-03-17T07:29:42;0.47;;;0.20;;
42346;SDS011;75728;51.856;6.314;2024-03-17T07:32:08;0.63;;;0.30;;
42346;SDS011;75728;51.856;6.314;2024-03-17T07:34:33;1.13;;;0.40;;
42346;SDS011;75728;51.856;6.314;2024-03-17T07:37:00;2.60;;;1.63;;
42346;SDS011;75728;51.856;6.314;2024-03-17T07:39:30;1.05;;;0.50;;
42346;SDS011;75728;51.856;6.314;2024-03-17T07:41:59;0.38;;;0.30;;
42346;SDS011;75728;51.856;6.314;2024-03-17T07:44:26;0.82;;;0.32;;
42346;SDS011;75728;51.856;6.314;2024-03-17T07:46:59;0.68;;;0.30;;
42346;SDS011;75728;51.856;6.314;2024-03-17T07:49:25;0.77;;;0.30;;
42346;SDS011;75728;51.856;6.314;2024-03-17T07:51:51;0.85;;;0.43;;
42346;SDS011;75728;51.856;6.314;2024-03-17T07:54:17;0.68;;;0.43;;
42346;SDS011;75728;51.856;6.314;2024-03-17T07:56:44;0.57;;;0.28;;
42346;SDS011;75728;51.856;6.314;2024-03-17T07:59:11;0.95;;;0.40;;
42346;SDS011;75728;51.856;6.314;2024-03-17T08:01:39;0.38;;;0.20;;
42346;SDS011;75728;51.856;6.314;2024-03-17T08:04:04;1.00;;;0.38;;
42346;SDS011;75728;51.856;6.314;2024-03-17T08:06:31;0.63;;;0.30;;
42346;SDS011;75728;51.856;6.314;2024-03-17T08:08:56;1.33;;;0.50;;
42346;SDS011;75728;51.856;6.314;2024-03-17T08:11:22;0.73;;;0.45;;
42346;SDS011;75728;51.856;6.314;2024-03-17T08:13:49;0.60;;;0.38;;
42346;SDS011;75728;51.856;6.314;2024-03-17T08:16:15;0.60;;;0.30;;
42346;SDS011;75728;51.856;6.314;2024-03-17T08:18:42;1.13;;;0.38;;
42346;SDS011;75728;51.856;6.314;2024-03-17T08:21:07;0.80;;;0.38;;
42346;SDS011;75728;51.856;6.314;2024-03-17T08:23:33;0.47;;;0.30;;
42346;SDS011;75728;51.856;6.314;2024-03-17T08:26:06;0.80;;;0.40;;
42346;SDS011;75728;51.856;6.314;2024-03-17T08:28:32;0.60;;;0.30;;
42346;SDS011;75728;51.856;6.314;2024-03-17T08:30:58;1.02;;;0.50;;
42346;SDS011;75728;51.856;6.314;2024-03-17T08:33:25;1.40;;;0.55;;
42346;SDS011;75728;51.856;6.314;2024-03-17T08:35:59;1.30;;;0.47;;
42346;SDS011;75728;51.856;6.314;2024-03-17T08:38:26;0.88;;;0.40;;
42346;SDS011;75728;51.856;6.314;2024-03-17T08:40:54;0.68;;;0.25;;
42346;SDS011;75728;51.856;6.314;2024-03-17T08:43:20;0.35;;;0.30;;
42346;SDS011;75728;51.856;6.314;2024-03-17T08:46:03;0.98;;;0.40;;
42346;SDS011;75728;51.856;6.314;2024-03-17T08:48:35;1.02;;;0.50;;
42346;SDS011;75728;51.856;6.314;2024-03-17T08:51:02;0.85;;;0.38;;
42346;SDS011;75728;51.856;6.314;2024-03-17T08:53:28;0.75;;;0.35;;
42346;SDS011;75728;51.856;6.314;2024-03-17T08:55:55;5.78;;;4.38;;
42346;SDS011;75728;51.856;6.314;2024-03-17T08:58:21;4.63;;;4.00;;
42346;SDS011;75728;51.856;6.314;2024-03-17T09:00:47;4.78;;;3.90;;
42346;SDS011;75728;51.856;6.314;2024-03-17T09:03:13;5.93;;;4.30;;
42346;SDS011;75728;51.856;6.314;2024-03-17T09:05:39;5.07;;;4.20;;
42346;SDS011;75728;51.856;6.314;2024-03-17T09:08:06;6.00;;;4.50;;
42346;SDS011;75728;51.856;6.314;2024-03-17T09:10:39;5.07;;;4.40;;
42346;SDS011;75728;51.856;6.314;2024-03-17T09:13:05;5.80;;;3.80;;
42346;SDS011;75728;51.856;6.314;2024-03-17T09:15:30;6.43;;;3.95;;
42346;SDS011;75728;51.856;6.314;2024-03-17T09:17:56;4.45;;;3.65;;
42346;SDS011;75728;51.856;6.314;2024-03-17T09:20:21;5.72;;;3.60;;
42346;SDS011;75728;51.856;6.314;2024-03-17T09:22:47;5.35;;;3.58;;
42346;SDS011;75728;51.856;6.314;2024-03-17T09:25:13;5.80;;;3.25;;
42346;SDS011;75728;51.856;6.314;2024-03-17T09:27:39;6.40;;;3.50;;
42346;SDS011;75728;51.856;6.314;2024-03-17T09:30:05;4.72;;;3.45;;
42346;SDS011;75728;51.856;6.314;2024-03-17T09:32:34;5.03;;;3.33;;
42346;SDS011;75728;51.856;6.314;2024-03-17T09:35:03;8.13;;;4.05;;
42346;SDS011;75728;51.856;6.314;2024-03-17T09:37:29;5.32;;;3.63;;
42346;SDS011;75728;51.856;6.314;2024-03-17T09:39:56;5.00;;;3.25;;
42346;SDS011;75728;51.856;6.314;2024-03-17T09:42:23;5.60;;;3.47;;
42346;SDS011;75728;51.856;6.314;2024-03-17T09:44:49;5.75;;;3.65;;
42346;SDS011;75728;51.856;6.314;2024-03-17T09:47:19;4.72;;;2.90;;
42346;SDS011;75728;51.856;6.314;2024-03-17T09:49:49;4.13;;;3.05;;
42346;SDS011;75728;51.856;6.314;2024-03-17T09:52:18;4.32;;;3.00;;
42346;SDS011;75728;51.856;6.314;2024-03-17T09:54:44;5.63;;;3.50;;
42346;SDS011;75728;51.856;6.314;2024-03-17T09:57:14;5.07;;;3.20;;
42346;SDS011;75728;51.856;6.314;2024-03-17T09:59:41;5.80;;;3.33;;
42346;SDS011;75728;51.856;6.314;2024-03-17T10:02:11;5.60;;;3.33;;
42346;SDS011;75728;51.856;6.314;2024-03-17T10:04:43;5.55;;;3.28;;
42346;SDS011;75728;51.856;6.314;2024-03-17T10:07:08;7.60;;;4.00;;
42346;SDS011;75728;51.856;6.314;2024-03-17T10:09:34;5.88;;;3.85;;
42346;SDS011;75728;51.856;6.314;2024-03-17T10:12:00;5.15;;;3.20;;
42346;SDS011;75728;51.856;6.314;2024-03-17T10:14:25;4.88;;;3.10;;
42346;SDS011;75728;51.856;6.314;2024-03-17T10:16:51;6.35;;;3.30;;
42346;SDS011;75728;51.856;6.314;2024-03-17T10:19:26;7.07;;;3.30;;
42346;SDS011;75728;51.856;6.314;2024-03-17T10:22:00;5.53;;;3.53;;
42346;SDS011;75728;51.856;6.314;2024-03-17T10:24:26;4.63;;;2.70;;
42346;SDS011;75728;51.856;6.314;2024-03-17T10:27:01;6.13;;;3.45;;
42346;SDS011;75728;51.856;6.314;2024-03-17T10:29:28;5.07;;;2.90;;
42346;SDS011;75728;51.856;6.314;2024-03-17T10:31:59;5.72;;;3.40;;
42346;SDS011;75728;51.856;6.314;2024-03-17T10:34:28;5.70;;;3.45;;
42346;SDS011;75728;51.856;6.314;2024-03-17T10:37:10;5.28;;;3.40;;
42346;SDS011;75728;51.856;6.314;2024-03-17T10:39:39;4.72;;;3.47;;
42346;SDS011;75728;51.856;6.314;2024-03-17T10:42:09;9.45;;;3.75;;
42346;SDS011;75728;51.856;6.314;2024-03-17T10:44:39;5.30;;;3.65;;
42346;SDS011;75728;51.856;6.314;2024-03-17T10:47:08;5.53;;;3.40;;
42346;SDS011;75728;51.856;6.314;2024-03-17T10:49:45;7.38;;;3.75;;
42346;SDS011;75728;51.856;6.314;2024-03-17T10:52:17;8.20;;;3.45;;
42346;SDS011;75728;51.856;6.314;2024-03-17T10:54:47;8.07;;;3.50;;
42346;SDS011;75728;51.856;6.314;2024-03-17T10:57:20;6.50;;;3.28;;
42346;SDS011;75728;51.856;6.314;2024-03-17T10:59:51;7.93;;;3.38;;
42346;SDS011;75728;51.856;6.314;2024-03-17T11:04:49;6.05;;;3.22;;
42346;SDS011;75728;51.856;6.314;2024-03-17T11:07:17;6.10;;;3.30;;
42346;SDS011;75728;51.856;6.314;2024-03-17T11:09:44;8.68;;;3.85;;
42346;SDS011;75728;51.856;6.314;2024-03-17T11:17:47;6.47;;;3.47;;
42346;SDS011;75728;51.856;6.314;2024-03-17T11:20:23;7.05;;;3.47;;
42346;SDS011;75728;51.856;6.314;2024-03-17T11:22:51;5.35;;;3.17;;
42346;SDS011;75728;51.856;6.314;2024-03-17T11:27:56;10.32;;;3.60;;
42346;SDS011;75728;51.856;6.314;2024-03-17T11:31:04;8.35;;;3.40;;
42346;SDS011;75728;51.856;6.314;2024-03-17T11:38:55;6.97;;;3.30;;
42346;SDS011;75728;51.856;6.314;2024-03-17T11:41:30;7.88;;;3.40;;
42346;SDS011;75728;51.856;6.314;2024-03-17T11:46:43;5.88;;;3.25;;
42346;SDS011;75728;51.856;6.314;2024-03-17T11:49:28;9.18;;;3.65;;
42346;SDS011;75728;51.856;6.314;2024-03-17T11:52:15;6.40;;;3.40;;
42346;SDS011;75728;51.856;6.314;2024-03-17T11:54:42;5.73;;;3.00;;
42346;SDS011;75728;51.856;6.314;2024-03-17T11:57:27;8.80;;;3.70;;
42346;SDS011;75728;51.856;6.314;2024-03-17T11:59:54;6.32;;;3.40;;
42346;SDS011;75728;51.856;6.314;2024-03-17T12:02:27;7.55;;;3.22;;
42346;SDS011;75728;51.856;6.314;2024-03-17T12:04:58;7.32;;;3.83;;
42346;SDS011;75728;51.856;6.314;2024-03-17T12:07:25;7.93;;;3.45;;
42346;SDS011;75728;51.856;6.314;2024-03-17T12:09:53;9.93;;;3.40;;
42346;SDS011;75728;51.856;6.314;2024-03-17T12:12:25;6.70;;;3.22;;
42346;SDS011;75728;51.856;6.314;2024-03-17T12:15:02;10.68;;;3.75;;
42346;SDS011;75728;51.856;6.314;2024-03-17T12:17:30;8.10;;;3.30;;
42346;SDS011;75728;51.856;6.314;2024-03-17T12:19:56;7.88;;;3.17;;
42346;SDS011;75728;51.856;6.314;2024-03-17T12:22:22;6.93;;;3.50;;
42346;SDS011;75728;51.856;6.314;2024-03-17T12:24:53;8.48;;;3.60;;
42346;SDS011;75728;51.856;6.314;2024-03-17T12:27:20;8.40;;;3.65;;
42346;SDS011;75728;51.856;6.314;2024-03-17T12:29:53;9.75;;;3.30;;
42346;SDS011;75728;51.856;6.314;2024-03-17T12:32:20;10.48;;;3.75;;
42346;SDS011;75728;51.856;6.314;2024-03-17T12:34:49;11.52;;;3.90;;
42346;SDS011;75728;51.856;6.314;2024-03-17T12:37:20;9.00;;;3.53;;
42346;SDS011;75728;51.856;6.314;2024-03-17T12:39:47;10.73;;;3.72;;
42346;SDS011;75728;51.856;6.314;2024-03-17T12:42:13;11.15;;;3.70;;
42346;SDS011;75728;51.856;6.314;2024-03-17T12:44:49;8.65;;;3.65;;
42346;SDS011;75728;51.856;6.314;2024-03-17T12:47:23;11.95;;;3.45;;
42346;SDS011;75728;51.856;6.314;2024-03-17T12:52:29;9.65;;;3.88;;
42346;SDS011;75728;51.856;6.314;2024-03-17T12:55:00;10.33;;;3.63;;
42346;SDS011;75728;51.856;6.314;2024-03-17T13:00:34;11.73;;;3.90;;
42346;SDS011;75728;51.856;6.314;2024-03-17T13:03:04;9.10;;;3.45;;
42346;SDS011;75728;51.856;6.314;2024-03-17T13:05:32;10.60;;;3.42;;
42346;SDS011;75728;51.856;6.314;2024-03-17T13:08:01;9.05;;;3.78;;
42346;SDS011;75728;51.856;6.314;2024-03-17T13:10:27;9.10;;;3.10;;
42346;SDS011;75728;51.856;6.314;2024-03-17T13:13:01;7.43;;;3.13;;
42346;SDS011;75728;51.856;6.314;2024-03-17T13:15:32;7.78;;;3.30;;
42346;SDS011;75728;51.856;6.314;2024-03-17T13:18:00;8.43;;;2.95;;
42346;SDS011;75728;51.856;6.314;2024-03-17T13:20:27;8.05;;;2.97;;
42346;SDS011;75728;51.856;6.314;2024-03-17T13:22:53;9.43;;;3.70;;
42346;SDS011;75728;51.856;6.314;2024-03-17T13:25:22;8.25;;;3.20;;
42346;SDS011;75728;51.856;6.314;2024-03-17T13:27:54;8.15;;;3.05;;
42346;SDS011;75728;51.856;6.314;2024-03-17T13:30:20;7.53;;;3.42;;
42346;SDS011;75728;51.856;6.314;2024-03-17T13:32:48;7.70;;;3.33;;
42346;SDS011;75728;51.856;6.314;2024-03-17T13:35:20;6.03;;;2.90;;
42346;SDS011;75728;51.856;6.314;2024-03-17T13:37:48;6.43;;;2.92;;
42346;SDS011;75728;51.856;6.314;2024-03-17T13:40:15;7.25;;;3.28;;
42346;SDS011;75728;51.856;6.314;2024-03-17T13:42:48;8.32;;;2.88;;
42346;SDS011;75728;51.856;6.314;2024-03-17T13:45:15;6.53;;;2.72;;
42346;SDS011;75728;51.856;6.314;2024-03-17T13:47:42;7.57;;;3.20;;
42346;SDS011;75728;51.856;6.314;2024-03-17T13:50:12;5.93;;;2.70;;
42346;SDS011;75728;51.856;6.314;2024-03-17T13:52:41;7.00;;;2.90;;
42346;SDS011;75728;51.856;6.314;2024-03-17T13:55:14;6.53;;;2.80;;
42346;SDS011;75728;51.856;6.314;2024-03-17T13:57:42;8.82;;;2.88;;
42346;SDS011;75728;51.856;6.314;2024-03-17T14:00:12;7.70;;;3.88;;
42346;SDS011;75728;51.856;6.314;2024-03-17T14:02:44;8.00;;;3.17;;
42346;SDS011;75728;51.856;6.314;2024-03-17T14:05:14;6.85;;;2.90;;
42346;SDS011;75728;51.856;6.314;2024-03-17T14:07:41;8.38;;;2.88;;
42346;SDS011;75728;51.856;6.314;2024-03-17T14:10:09;8.35;;;2.92;;
42346;SDS011;75728;51.856;6.314;2024-03-17T14:12:36;6.85;;;3.17;;
42346;SDS011;75728;51.856;6.314;2024-03-17T14:15:05;6.13;;;3.00;;
42346;SDS011;75728;51.856;6.314;2024-03-17T14:17:32;5.43;;;2.85;;
42346;SDS011;75728;51.856;6.314;2024-03-17T14:19:58;7.10;;;2.90;;
42346;SDS011;75728;51.856;6.314;2024-03-17T14:22:24;6.53;;;3.30;;
42346;SDS011;75728;51.856;6.314;2024-03-17T14:24:50;10.07;;;4.22;;
42346;SDS011;75728;51.856;6.314;2024-03-17T14:27:15;5.25;;;2.53;;
42346;SDS011;75728;51.856;6.314;2024-03-17T14:29:44;6.80;;;2.78;;
42346;SDS011;75728;51.856;6.314;2024-03-17T14:32:10;7.45;;;3.05;;
42346;SDS011;75728;51.856;6.314;2024-03-17T14:34:36;9.30;;;2.95;;
42346;SDS011;75728;51.856;6.314;2024-03-17T14:37:03;8.23;;;2.95;;
42346;SDS011;75728;51.856;6.314;2024-03-17T14:39:29;7.40;;;3.60;;
42346;SDS011;75728;51.856;6.314;2024-03-17T14:41:55;7.38;;;3.17;;
42346;SDS011;75728;51.856;6.314;2024-03-17T14:44:21;5.75;;;2.70;;
42346;SDS011;75728;51.856;6.314;2024-03-17T14:46:47;8.95;;;3.20;;
42346;SDS011;75728;51.856;6.314;2024-03-17T14:49:16;8.27;;;3.13;;
42346;SDS011;75728;51.856;6.314;2024-03-17T14:51:42;9.23;;;3.63;;
42346;SDS011;75728;51.856;6.314;2024-03-17T14:54:08;6.97;;;3.72;;
42346;SDS011;75728;51.856;6.314;2024-03-17T14:56:34;8.75;;;3.30;;
42346;SDS011;75728;51.856;6.314;2024-03-17T14:59:00;8.15;;;3.30;;
42346;SDS011;75728;51.856;6.314;2024-03-17T15:01:26;8.27;;;3.30;;
42346;SDS011;75728;51.856;6.314;2024-03-17T15:03:54;8.55;;;4.07;;
42346;SDS011;75728;51.856;6.314;2024-03-17T15:06:20;7.75;;;3.15;;
42346;SDS011;75728;51.856;6.314;2024-03-17T15:08:46;8.43;;;3.67;;
42346;SDS011;75728;51.856;6.314;2024-03-17T15:11:12;8.95;;;3.53;;
42346;SDS011;75728;51.856;6.314;2024-03-17T15:13:37;8.95;;;3.58;;
42346;SDS011;75728;51.856;6.314;2024-03-17T15:16:03;6.85;;;3.25;;